createdAt,value
2015-05-23T00:00:15.164Z,17.5
2015-05-23T00:00:33.478Z,17.4
2015-05-23T00:00:51.775Z,17.4
2015-05-23T00:01:10.056Z,17.4
2015-05-23T00:01:28.338Z,17.4
2015-05-23T00:01:46.669Z,17.4
2015-05-23T00:02:04.950Z,17.4
2015-05-23T00:02:23.247Z,17.5
2015-05-23T00:02:41.546Z,17.5
2015-05-23T00:02:59.827Z,17.5
2015-05-23T00:03:18.124Z,17.5
2015-05-23T00:03:36.421Z,17.5
2015-05-23T00:03:54.720Z,17.5
2015-05-23T00:04:13.017Z,17.5
2015-05-23T00:04:31.313Z,17.5
2015-05-23T00:04:49.613Z,17.5
2015-05-23T00:05:07.910Z,17.4
2015-05-23T00:05:26.191Z,17.5
2015-05-23T00:05:44.473Z,17.5
2015-05-23T00:06:02.772Z,17.5
2015-05-23T00:06:21.084Z,17.5
2015-05-23T00:06:39.397Z,17.5
2015-05-23T00:06:57.681Z,17.5
2015-05-23T00:07:15.978Z,17.5
2015-05-23T00:07:34.275Z,17.5
2015-05-23T00:07:52.587Z,17.5
2015-05-23T00:08:10.887Z,17.5
2015-05-23T00:08:29.168Z,17.5
2015-05-23T00:08:47.465Z,17.5
2015-05-23T00:09:05.748Z,17.4
2015-05-23T00:09:24.030Z,17.4
2015-05-23T00:09:42.342Z,17.4
2015-05-23T00:10:00.625Z,17.4
2015-05-23T00:10:18.907Z,17.4
2015-05-23T00:10:37.203Z,17.3
2015-05-23T00:10:55.500Z,17.3
2015-05-23T00:11:13.768Z,17.3
2015-05-23T00:11:32.065Z,17.3
2015-05-23T00:11:50.362Z,17.3
2015-05-23T00:12:08.646Z,17.2
2015-05-23T00:12:26.958Z,17.2
2015-05-23T00:12:45.240Z,17.2
2015-05-23T00:13:03.554Z,17.2
2015-05-23T00:13:21.851Z,17.2
2015-05-23T00:13:40.132Z,17.2
2015-05-23T00:13:58.257Z,17.2
2015-05-23T00:14:16.573Z,17.2
2015-05-23T00:14:34.854Z,17.1
2015-05-23T00:14:53.135Z,17.2
2015-05-23T00:15:11.450Z,17.2
2015-05-23T00:15:29.747Z,17.2
2015-05-23T00:15:48.028Z,17.2
2015-05-23T00:16:06.312Z,17.2
2015-05-23T00:16:24.609Z,17.2
2015-05-23T00:16:42.906Z,17.2
2015-05-23T00:17:01.203Z,17.2
2015-05-23T00:17:19.486Z,17.2
2015-05-23T00:17:37.767Z,17.2
2015-05-23T00:17:56.049Z,17.2
2015-05-23T00:18:14.347Z,17.2
2015-05-23T00:18:32.644Z,17.2
2015-05-23T00:18:50.941Z,17.2
2015-05-23T00:19:09.224Z,17.2
2015-05-23T00:19:27.521Z,17.2
2015-05-23T00:19:45.818Z,17.2
2015-05-23T00:20:04.099Z,17.3
2015-05-23T00:20:22.399Z,17.3
2015-05-23T00:20:40.681Z,17.3
2015-05-23T00:20:58.977Z,17.3
2015-05-23T00:21:17.277Z,17.3
2015-05-23T00:21:35.559Z,17.3
2015-05-23T00:21:53.840Z,17.3
2015-05-23T00:22:12.138Z,17.3
2015-05-23T00:22:30.419Z,17.3
2015-05-23T00:22:48.716Z,17.3
2015-05-23T00:23:07.013Z,17.3
2015-05-23T00:23:25.297Z,17.3
2015-05-23T00:23:43.578Z,17.3
2015-05-23T00:24:01.875Z,17.3
2015-05-23T00:24:20.174Z,17.3
2015-05-23T00:24:38.455Z,17.4
2015-05-23T00:24:56.736Z,17.4
2015-05-23T00:25:15.020Z,17.3
2015-05-23T00:25:33.301Z,17.3
2015-05-23T00:25:51.598Z,17.3
2015-05-23T00:26:09.910Z,17.3
2015-05-23T00:26:28.195Z,17.3
2015-05-23T00:26:46.476Z,17.3
2015-05-23T00:27:04.757Z,17.3
2015-05-23T00:27:23.056Z,17.3
2015-05-23T00:27:41.337Z,17.3
2015-05-23T00:27:59.634Z,17.3
2015-05-23T00:28:17.931Z,17.3
2015-05-23T00:28:36.214Z,17.3
2015-05-23T00:28:54.511Z,17.3
2015-05-23T00:29:12.808Z,17.3
2015-05-23T00:29:31.092Z,17.3
2015-05-23T00:29:49.405Z,17.3
2015-05-23T00:30:07.702Z,17.3
2015-05-23T00:30:25.985Z,17.3
2015-05-23T00:30:44.313Z,17.3
2015-05-23T00:31:02.610Z,17.3
2015-05-23T00:31:20.922Z,17.3
2015-05-23T00:31:39.206Z,17.3
2015-05-23T00:31:57.487Z,17.3
2015-05-23T00:32:15.768Z,17.3
2015-05-23T00:32:34.100Z,17.3
2015-05-23T00:32:52.350Z,17.3
2015-05-23T00:33:10.647Z,17.3
2015-05-23T00:33:28.788Z,17.3
2015-05-23T00:33:47.071Z,17.2
2015-05-23T00:34:05.352Z,17.2
2015-05-23T00:34:23.633Z,17.2
2015-05-23T00:34:41.979Z,17.2
2015-05-23T00:35:00.260Z,17.1
2015-05-23T00:35:18.542Z,17.1
2015-05-23T00:35:36.823Z,17.1
2015-05-23T00:35:55.123Z,17.1
2015-05-23T00:36:13.404Z,17.1
2015-05-23T00:36:31.701Z,17
2015-05-23T00:36:49.984Z,17
2015-05-23T00:37:08.265Z,17
2015-05-23T00:37:26.562Z,17
2015-05-23T00:37:44.844Z,17
2015-05-23T00:38:03.127Z,17
2015-05-23T00:38:21.424Z,17
2015-05-23T00:38:39.705Z,17
2015-05-23T00:38:57.989Z,17
2015-05-23T00:39:16.270Z,16.9
2015-05-23T00:39:34.552Z,16.9
2015-05-23T00:39:52.849Z,17
2015-05-23T00:40:11.148Z,17
2015-05-23T00:40:29.430Z,17
2015-05-23T00:40:47.727Z,17
2015-05-23T00:41:06.025Z,17
2015-05-23T00:41:24.307Z,17
2015-05-23T00:41:42.604Z,17
2015-05-23T00:42:00.885Z,17
2015-05-23T00:42:19.200Z,17
2015-05-23T00:42:37.482Z,17
2015-05-23T00:42:55.778Z,17
2015-05-23T00:43:14.093Z,17
2015-05-23T00:43:32.390Z,17.1
2015-05-23T00:43:50.655Z,17.1
2015-05-23T00:44:08.968Z,17.1
2015-05-23T00:44:27.267Z,17.1
2015-05-23T00:44:45.564Z,17.1
2015-05-23T00:45:03.845Z,17.1
2015-05-23T00:45:22.145Z,17.1
2015-05-23T00:45:40.426Z,17.1
2015-05-23T00:45:58.739Z,17.1
2015-05-23T00:46:17.022Z,17.1
2015-05-23T00:46:35.303Z,17.1
2015-05-23T00:46:53.600Z,17.1
2015-05-23T00:47:11.897Z,17.1
2015-05-23T00:47:30.196Z,17.1
2015-05-23T00:47:48.477Z,17.1
2015-05-23T00:48:06.758Z,17.2
2015-05-23T00:48:25.057Z,17.2
2015-05-23T00:48:43.354Z,17.2
2015-05-23T00:49:01.635Z,17.2
2015-05-23T00:49:19.935Z,17.2
2015-05-23T00:49:38.232Z,17.2
2015-05-23T00:49:56.513Z,17.2
2015-05-23T00:50:14.810Z,17.2
2015-05-23T00:50:33.109Z,17.2
2015-05-23T00:50:51.390Z,17.2
2015-05-23T00:51:09.671Z,17.2
2015-05-23T00:51:27.987Z,17.2
2015-05-23T00:51:46.284Z,17.2
2015-05-23T00:52:04.565Z,17.2
2015-05-23T00:52:22.864Z,17.2
2015-05-23T00:52:41.145Z,17.2
2015-05-23T00:52:59.442Z,17.2
2015-05-23T00:53:17.739Z,17.2
2015-05-23T00:53:36.038Z,17.2
2015-05-23T00:53:54.335Z,17.3
2015-05-23T00:54:12.616Z,17.3
2015-05-23T00:54:30.899Z,17.3
2015-05-23T00:54:49.196Z,17.3
2015-05-23T00:55:07.477Z,17.3
2015-05-23T00:55:25.762Z,17.3
2015-05-23T00:55:44.058Z,17.3
2015-05-23T00:56:02.355Z,17.3
2015-05-23T00:56:20.637Z,17.3
2015-05-23T00:56:38.967Z,17.3
2015-05-23T00:56:57.264Z,17.3
2015-05-23T00:57:15.545Z,17.3
2015-05-23T00:57:33.828Z,17.4
2015-05-23T00:57:52.125Z,17.4
2015-05-23T00:58:10.406Z,17.4
2015-05-23T00:58:28.033Z,17.4
2015-05-23T00:58:46.314Z,17.4
2015-05-23T00:59:04.643Z,17.4
2015-05-23T00:59:22.939Z,17.4
2015-05-23T00:59:41.224Z,17.4
2015-05-23T00:59:59.521Z,17.4
2015-05-23T01:00:17.802Z,17.5
2015-05-23T01:00:36.102Z,17.5
2015-05-23T01:00:54.383Z,17.5
2015-05-23T01:01:12.680Z,17.5
2015-05-23T01:01:30.963Z,17.5
2015-05-23T01:01:49.260Z,17.5
2015-05-23T01:02:07.557Z,17.6
2015-05-23T01:02:25.854Z,17.6
2015-05-23T01:02:44.168Z,17.6
2015-05-23T01:03:02.449Z,17.6
2015-05-23T01:03:20.778Z,17.6
2015-05-23T01:03:39.140Z,17.6
2015-05-23T01:03:57.499Z,17.6
2015-05-23T01:04:15.843Z,17.6
2015-05-23T01:04:34.126Z,17.6
2015-05-23T01:04:52.408Z,17.6
2015-05-23T01:05:10.689Z,17.6
2015-05-23T01:05:28.970Z,17.6
2015-05-23T01:05:47.285Z,17.6
2015-05-23T01:06:05.581Z,17.5
2015-05-23T01:06:23.863Z,17.5
2015-05-23T01:06:42.163Z,17.5
2015-05-23T01:07:00.459Z,17.4
2015-05-23T01:07:18.741Z,17.4
2015-05-23T01:07:37.040Z,17.4
2015-05-23T01:07:55.321Z,17.4
2015-05-23T01:08:13.602Z,17.4
2015-05-23T01:08:31.743Z,17.3
2015-05-23T01:08:50.042Z,17.3
2015-05-23T01:09:08.323Z,17.3
2015-05-23T01:09:26.620Z,17.3
2015-05-23T01:09:44.919Z,17.3
2015-05-23T01:10:03.215Z,17.3
2015-05-23T01:10:21.512Z,17.3
2015-05-23T01:10:39.812Z,17.3
2015-05-23T01:10:58.140Z,17.3
2015-05-23T01:11:16.422Z,17.3
2015-05-23T01:11:34.718Z,17.3
2015-05-23T01:11:53.033Z,17.3
2015-05-23T01:12:11.314Z,17.3
2015-05-23T01:12:29.580Z,17.2
2015-05-23T01:12:47.880Z,17.2
2015-05-23T01:13:06.177Z,17.2
2015-05-23T01:13:24.458Z,17.1
2015-05-23T01:13:42.741Z,17.1
2015-05-23T01:14:01.054Z,17.1
2015-05-23T01:14:19.335Z,17
2015-05-23T01:14:37.616Z,17.1
2015-05-23T01:14:55.915Z,17
2015-05-23T01:15:14.212Z,16.9
2015-05-23T01:15:32.509Z,16.9
2015-05-23T01:15:50.808Z,16.9
2015-05-23T01:16:09.120Z,16.9
2015-05-23T01:16:27.386Z,16.8
2015-05-23T01:16:45.686Z,16.8
2015-05-23T01:17:03.967Z,16.8
2015-05-23T01:17:22.248Z,16.8
2015-05-23T01:17:40.529Z,16.8
2015-05-23T01:17:58.814Z,16.8
2015-05-23T01:18:17.110Z,16.8
2015-05-23T01:18:35.407Z,16.8
2015-05-23T01:18:53.691Z,16.8
2015-05-23T01:19:11.972Z,16.9
2015-05-23T01:19:30.269Z,16.9
2015-05-23T01:19:48.566Z,16.9
2015-05-23T01:20:06.849Z,16.9
2015-05-23T01:20:25.146Z,16.9
2015-05-23T01:20:43.427Z,16.9
2015-05-23T01:21:01.727Z,17
2015-05-23T01:21:20.024Z,17
2015-05-23T01:21:38.336Z,17
2015-05-23T01:21:56.604Z,17
2015-05-23T01:22:14.885Z,17
2015-05-23T01:22:33.182Z,17
2015-05-23T01:22:51.463Z,17
2015-05-23T01:23:09.762Z,17
2015-05-23T01:23:27.403Z,17
2015-05-23T01:23:45.684Z,17
2015-05-23T01:24:03.968Z,17
2015-05-23T01:24:22.265Z,17
2015-05-23T01:24:40.546Z,17
2015-05-23T01:24:58.830Z,16.9
2015-05-23T01:25:17.126Z,16.9
2015-05-23T01:25:35.408Z,16.9
2015-05-23T01:25:53.689Z,16.9
2015-05-23T01:26:11.988Z,16.9
2015-05-23T01:26:30.269Z,16.9
2015-05-23T01:26:48.550Z,16.8
2015-05-23T01:27:06.849Z,16.8
2015-05-23T01:27:25.130Z,16.8
2015-05-23T01:27:43.427Z,16.8
2015-05-23T01:28:01.724Z,16.8
2015-05-23T01:28:20.008Z,16.7
2015-05-23T01:28:38.290Z,16.8
2015-05-23T01:28:56.602Z,16.8
2015-05-23T01:29:14.902Z,16.8
2015-05-23T01:29:33.199Z,16.8
2015-05-23T01:29:51.496Z,16.8
2015-05-23T01:30:09.793Z,16.8
2015-05-23T01:30:28.092Z,16.8
2015-05-23T01:30:46.388Z,16.8
2015-05-23T01:31:04.670Z,16.8
2015-05-23T01:31:22.953Z,16.8
2015-05-23T01:31:41.234Z,16.8
2015-05-23T01:31:59.531Z,16.8
2015-05-23T01:32:17.847Z,16.9
2015-05-23T01:32:36.128Z,16.9
2015-05-23T01:32:54.425Z,16.9
2015-05-23T01:33:12.722Z,16.9
2015-05-23T01:33:31.037Z,17
2015-05-23T01:33:49.318Z,17
2015-05-23T01:34:07.600Z,17
2015-05-23T01:34:25.883Z,17
2015-05-23T01:34:44.180Z,17.1
2015-05-23T01:35:02.477Z,17
2015-05-23T01:35:20.760Z,17
2015-05-23T01:35:39.057Z,17
2015-05-23T01:35:57.338Z,17
2015-05-23T01:36:15.635Z,17.1
2015-05-23T01:36:33.918Z,17.1
2015-05-23T01:36:52.199Z,17.1
2015-05-23T01:37:10.496Z,17
2015-05-23T01:37:28.796Z,17
2015-05-23T01:37:47.077Z,17
2015-05-23T01:38:05.359Z,16.9
2015-05-23T01:38:23.657Z,16.9
2015-05-23T01:38:41.954Z,16.9
2015-05-23T01:39:00.220Z,16.8
2015-05-23T01:39:18.501Z,16.8
2015-05-23T01:39:36.785Z,16.9
2015-05-23T01:39:55.129Z,16.9
2015-05-23T01:40:13.426Z,16.9
2015-05-23T01:40:31.725Z,16.9
2015-05-23T01:40:50.006Z,16.9
2015-05-23T01:41:08.287Z,16.9
2015-05-23T01:41:26.602Z,17
2015-05-23T01:41:44.883Z,17
2015-05-23T01:42:03.180Z,16.9
2015-05-23T01:42:21.461Z,17
2015-05-23T01:42:39.745Z,17
2015-05-23T01:42:58.057Z,17
2015-05-23T01:43:16.323Z,17
2015-05-23T01:43:34.622Z,17
2015-05-23T01:43:52.918Z,17
2015-05-23T01:44:11.215Z,17
2015-05-23T01:44:29.500Z,17
2015-05-23T01:44:47.781Z,17
2015-05-23T01:45:06.078Z,17
2015-05-23T01:45:24.375Z,17
2015-05-23T01:45:42.642Z,16.9
2015-05-23T01:46:00.955Z,16.9
2015-05-23T01:46:19.236Z,16.9
2015-05-23T01:46:37.536Z,16.9
2015-05-23T01:46:55.833Z,16.8
2015-05-23T01:47:14.130Z,16.9
2015-05-23T01:47:32.411Z,16.9
2015-05-23T01:47:50.553Z,16.9
2015-05-23T01:48:08.866Z,17
2015-05-23T01:48:27.178Z,17
2015-05-23T01:48:45.305Z,17
2015-05-23T01:49:03.587Z,17
2015-05-23T01:49:21.868Z,17
2015-05-23T01:49:40.168Z,17
2015-05-23T01:49:58.449Z,17
2015-05-23T01:50:16.762Z,17
2015-05-23T01:50:35.043Z,17.1
2015-05-23T01:50:53.326Z,17.1
2015-05-23T01:51:11.607Z,17.1
2015-05-23T01:51:29.873Z,17.1
2015-05-23T01:51:48.156Z,17.1
2015-05-23T01:52:06.453Z,17
2015-05-23T01:52:24.734Z,17
2015-05-23T01:52:43.019Z,17
2015-05-23T01:53:01.315Z,17
2015-05-23T01:53:19.597Z,17
2015-05-23T01:53:37.909Z,16.9
2015-05-23T01:53:56.177Z,16.9
2015-05-23T01:54:14.458Z,16.9
2015-05-23T01:54:32.755Z,16.9
2015-05-23T01:54:51.039Z,16.9
2015-05-23T01:55:09.336Z,16.9
2015-05-23T01:55:27.633Z,16.9
2015-05-23T01:55:45.930Z,16.9
2015-05-23T01:56:04.213Z,16.9
2015-05-23T01:56:22.494Z,16.9
2015-05-23T01:56:40.807Z,16.9
2015-05-23T01:56:59.107Z,16.9
2015-05-23T01:57:17.419Z,16.9
2015-05-23T01:57:35.716Z,16.9
2015-05-23T01:57:54.013Z,17
2015-05-23T01:58:12.296Z,17
2015-05-23T01:58:30.593Z,17
2015-05-23T01:58:48.859Z,17
2015-05-23T01:59:07.159Z,17
2015-05-23T01:59:25.424Z,17
2015-05-23T01:59:43.721Z,17.1
2015-05-23T02:00:02.018Z,17.1
2015-05-23T02:00:20.301Z,17.1
2015-05-23T02:00:38.614Z,17.1
2015-05-23T02:00:56.926Z,17.1
2015-05-23T02:01:15.209Z,17.1
2015-05-23T02:01:33.506Z,17.1
2015-05-23T02:01:51.788Z,17.1
2015-05-23T02:02:10.069Z,17.1
2015-05-23T02:02:28.369Z,17.1
2015-05-23T02:02:46.666Z,17.1
2015-05-23T02:03:04.962Z,17.1
2015-05-23T02:03:23.261Z,17
2015-05-23T02:03:41.543Z,17
2015-05-23T02:03:59.839Z,17
2015-05-23T02:04:18.138Z,17
2015-05-23T02:04:36.435Z,17
2015-05-23T02:04:54.716Z,17
2015-05-23T02:05:12.998Z,16.9
2015-05-23T02:05:31.282Z,16.9
2015-05-23T02:05:49.579Z,16.9
2015-05-23T02:06:07.860Z,16.9
2015-05-23T02:06:26.143Z,16.9
2015-05-23T02:06:44.456Z,16.9
2015-05-23T02:07:02.737Z,16.9
2015-05-23T02:07:21.020Z,16.9
2015-05-23T02:07:39.302Z,16.9
2015-05-23T02:07:57.583Z,17
2015-05-23T02:08:15.864Z,17
2015-05-23T02:08:34.164Z,16.9
2015-05-23T02:08:52.461Z,16.9
2015-05-23T02:09:10.742Z,16.9
2015-05-23T02:09:29.058Z,16.9
2015-05-23T02:09:47.323Z,16.9
2015-05-23T02:10:05.620Z,16.9
2015-05-23T02:10:23.919Z,16.9
2015-05-23T02:10:42.200Z,16.9
2015-05-23T02:11:00.481Z,16.9
2015-05-23T02:11:18.763Z,16.9
2015-05-23T02:11:37.046Z,17
2015-05-23T02:11:55.358Z,17
2015-05-23T02:12:13.640Z,17
2015-05-23T02:12:31.924Z,17
2015-05-23T02:12:50.221Z,17
2015-05-23T02:13:08.518Z,17
2015-05-23T02:13:26.801Z,17
2015-05-23T02:13:45.082Z,17
2015-05-23T02:14:03.363Z,17
2015-05-23T02:14:21.645Z,17
2015-05-23T02:14:39.928Z,17
2015-05-23T02:14:58.209Z,17
2015-05-23T02:15:16.522Z,17
2015-05-23T02:15:34.789Z,17
2015-05-23T02:15:53.102Z,16.9
2015-05-23T02:16:11.399Z,17
2015-05-23T02:16:29.683Z,17
2015-05-23T02:16:47.964Z,17
2015-05-23T02:17:06.245Z,17
2015-05-23T02:17:24.527Z,17.1
2015-05-23T02:17:42.826Z,17
2015-05-23T02:18:01.107Z,17
2015-05-23T02:18:19.388Z,17
2015-05-23T02:18:37.687Z,17
2015-05-23T02:18:55.968Z,17
2015-05-23T02:19:14.281Z,17
2015-05-23T02:19:32.562Z,16.9
2015-05-23T02:19:50.862Z,17
2015-05-23T02:20:09.143Z,17
2015-05-23T02:20:27.424Z,17
2015-05-23T02:20:45.709Z,17
2015-05-23T02:21:03.974Z,17
2015-05-23T02:21:22.271Z,17
2015-05-23T02:21:40.554Z,17
2015-05-23T02:21:58.836Z,17
2015-05-23T02:22:17.117Z,17
2015-05-23T02:22:35.398Z,17
2015-05-23T02:22:53.681Z,16.9
2015-05-23T02:23:11.978Z,16.9
2015-05-23T02:23:30.291Z,17
2015-05-23T02:23:48.590Z,17
2015-05-23T02:24:06.918Z,17
2015-05-23T02:24:25.199Z,17
2015-05-23T02:24:43.496Z,17
2015-05-23T02:25:01.780Z,17
2015-05-23T02:25:20.061Z,17
2015-05-23T02:25:38.343Z,17
2015-05-23T02:25:56.627Z,17
2015-05-23T02:26:14.908Z,17
2015-05-23T02:26:33.174Z,17
2015-05-23T02:26:51.455Z,17
2015-05-23T02:27:09.769Z,17
2015-05-23T02:27:28.051Z,17
2015-05-23T02:27:46.332Z,17
2015-05-23T02:28:04.616Z,17
2015-05-23T02:28:22.929Z,17.1
2015-05-23T02:28:41.226Z,17.1
2015-05-23T02:28:59.507Z,17.1
2015-05-23T02:29:17.789Z,17.1
2015-05-23T02:29:36.117Z,17.1
2015-05-23T02:29:54.398Z,17.1
2015-05-23T02:30:12.698Z,17.1
2015-05-23T02:30:30.995Z,17.1
2015-05-23T02:30:49.308Z,17
2015-05-23T02:31:07.589Z,17
2015-05-23T02:31:25.872Z,17
2015-05-23T02:31:44.169Z,17
2015-05-23T02:32:02.513Z,17
2015-05-23T02:32:20.797Z,17
2015-05-23T02:32:39.094Z,17
2015-05-23T02:32:57.375Z,16.9
2015-05-23T02:33:15.690Z,16.9
2015-05-23T02:33:34.002Z,16.9
2015-05-23T02:33:52.283Z,16.9
2015-05-23T02:34:10.565Z,16.8
2015-05-23T02:34:28.865Z,16.8
2015-05-23T02:34:47.146Z,16.8
2015-05-23T02:35:05.427Z,16.8
2015-05-23T02:35:23.757Z,16.8
2015-05-23T02:35:42.038Z,16.7
2015-05-23T02:36:00.320Z,16.7
2015-05-23T02:36:18.619Z,16.7
2015-05-23T02:36:36.931Z,16.7
2015-05-23T02:36:55.212Z,16.6
2015-05-23T02:37:13.509Z,16.6
2015-05-23T02:37:31.793Z,16.6
2015-05-23T02:37:50.090Z,16.6
2015-05-23T02:38:08.387Z,16.5
2015-05-23T02:38:26.686Z,16.5
2015-05-23T02:38:44.967Z,16.5
2015-05-23T02:39:03.249Z,16.5
2015-05-23T02:39:21.533Z,16.5
2015-05-23T02:39:39.814Z,16.5
2015-05-23T02:39:58.127Z,16.5
2015-05-23T02:40:16.470Z,16.5
2015-05-23T02:40:34.769Z,16.5
2015-05-23T02:40:52.597Z,16.5
2015-05-23T02:41:10.722Z,16.5
2015-05-23T02:41:29.021Z,16.5
2015-05-23T02:41:47.287Z,16.5
2015-05-23T02:42:05.584Z,16.5
2015-05-23T02:42:23.852Z,16.5
2015-05-23T02:42:42.149Z,16.5
2015-05-23T02:43:00.446Z,16.4
2015-05-23T02:43:18.712Z,16.4
2015-05-23T02:43:37.010Z,16.4
2015-05-23T02:43:55.275Z,16.4
2015-05-23T02:44:13.572Z,16.4
2015-05-23T02:44:32.013Z,16.3
2015-05-23T02:44:50.294Z,16.3
2015-05-23T02:45:08.591Z,16.3
2015-05-23T02:45:26.875Z,16.3
2015-05-23T02:45:45.156Z,16.3
2015-05-23T02:46:03.453Z,16.3
2015-05-23T02:46:21.578Z,16.3
2015-05-23T02:46:39.893Z,16.3
2015-05-23T02:46:58.189Z,16.3
2015-05-23T02:47:16.486Z,16.3
2015-05-23T02:47:34.770Z,16.3
2015-05-23T02:47:53.051Z,16.3
2015-05-23T02:48:11.332Z,16.4
2015-05-23T02:48:29.613Z,16.4
2015-05-23T02:48:47.913Z,16.4
2015-05-23T02:49:06.179Z,16.4
2015-05-23T02:49:24.491Z,16.4
2015-05-23T02:49:42.790Z,16.4
2015-05-23T02:50:01.071Z,16.4
2015-05-23T02:50:19.353Z,16.4
2015-05-23T02:50:37.636Z,16.4
2015-05-23T02:50:55.964Z,16.4
2015-05-23T02:51:14.277Z,16.4
2015-05-23T02:51:32.573Z,16.3
2015-05-23T02:51:50.858Z,16.4
2015-05-23T02:52:09.139Z,16.4
2015-05-23T02:52:27.436Z,16.3
2015-05-23T02:52:45.578Z,16.3
2015-05-23T02:53:03.844Z,16.3
2015-05-23T02:53:22.141Z,16.3
2015-05-23T02:53:40.422Z,16.3
2015-05-23T02:53:58.722Z,16.3
2015-05-23T02:54:17.003Z,16.3
2015-05-23T02:54:35.300Z,16.3
2015-05-23T02:54:53.600Z,16.3
2015-05-23T02:55:11.913Z,16.4
2015-05-23T02:55:30.194Z,16.4
2015-05-23T02:55:48.491Z,16.4
2015-05-23T02:56:06.774Z,16.4
2015-05-23T02:56:25.071Z,16.4
2015-05-23T02:56:43.368Z,16.4
2015-05-23T02:57:01.667Z,16.4
2015-05-23T02:57:19.948Z,16.4
2015-05-23T02:57:38.229Z,16.4
2015-05-23T02:57:56.510Z,16.5
2015-05-23T02:58:14.810Z,16.5
2015-05-23T02:58:33.123Z,16.5
2015-05-23T02:58:51.404Z,16.5
2015-05-23T02:59:09.687Z,16.5
2015-05-23T02:59:27.968Z,16.5
2015-05-23T02:59:46.234Z,16.5
2015-05-23T03:00:04.533Z,16.5
2015-05-23T03:00:22.814Z,16.5
2015-05-23T03:00:41.095Z,16.5
2015-05-23T03:00:59.392Z,16.5
2015-05-23T03:01:17.707Z,16.5
2015-05-23T03:01:36.004Z,16.5
2015-05-23T03:01:54.285Z,16.5
2015-05-23T03:02:12.600Z,16.4
2015-05-23T03:02:30.882Z,16.5
2015-05-23T03:02:49.179Z,16.5
2015-05-23T03:03:07.462Z,16.5
2015-05-23T03:03:25.743Z,16.5
2015-05-23T03:03:44.040Z,16.5
2015-05-23T03:04:02.337Z,16.5
2015-05-23T03:04:20.621Z,16.5
2015-05-23T03:04:38.918Z,16.5
2015-05-23T03:04:57.184Z,16.5
2015-05-23T03:05:15.467Z,16.5
2015-05-23T03:05:33.764Z,16.5
2015-05-23T03:05:52.045Z,16.5
2015-05-23T03:06:10.328Z,16.5
2015-05-23T03:06:28.609Z,16.5
2015-05-23T03:06:46.891Z,16.5
2015-05-23T03:07:05.172Z,16.5
2015-05-23T03:07:23.456Z,16.5
2015-05-23T03:07:41.737Z,16.5
2015-05-23T03:08:00.034Z,16.5
2015-05-23T03:08:18.318Z,16.5
2015-05-23T03:08:36.599Z,16.5
2015-05-23T03:08:54.896Z,16.5
2015-05-23T03:09:13.179Z,16.5
2015-05-23T03:09:31.460Z,16.5
2015-05-23T03:09:49.726Z,16.5
2015-05-23T03:10:08.023Z,16.6
2015-05-23T03:10:26.306Z,16.5
2015-05-23T03:10:44.587Z,16.5
2015-05-23T03:11:02.868Z,16.5
2015-05-23T03:11:21.167Z,16.5
2015-05-23T03:11:38.808Z,16.5
2015-05-23T03:11:57.089Z,16.5
2015-05-23T03:12:15.370Z,16.5
2015-05-23T03:12:33.656Z,16.5
2015-05-23T03:12:51.953Z,16.5
2015-05-23T03:13:10.249Z,16.5
2015-05-23T03:13:28.563Z,16.5
2015-05-23T03:13:46.844Z,16.5
2015-05-23T03:14:05.110Z,16.5
2015-05-23T03:14:23.410Z,16.5
2015-05-23T03:14:41.707Z,16.5
2015-05-23T03:15:00.003Z,16.5
2015-05-23T03:15:18.285Z,16.5
2015-05-23T03:15:36.568Z,16.5
2015-05-23T03:15:54.709Z,16.5
2015-05-23T03:16:13.005Z,16.5
2015-05-23T03:16:31.320Z,16.5
2015-05-23T03:16:49.617Z,16.5
2015-05-23T03:17:07.898Z,16.5
2015-05-23T03:17:26.198Z,16.5
2015-05-23T03:17:44.479Z,16.5
2015-05-23T03:18:02.807Z,16.5
2015-05-23T03:18:21.104Z,16.5
2015-05-23T03:18:39.404Z,16.5
2015-05-23T03:18:57.685Z,16.5
2015-05-23T03:19:15.951Z,16.5
2015-05-23T03:19:34.265Z,16.5
2015-05-23T03:19:52.547Z,16.5
2015-05-23T03:20:10.844Z,16.4
2015-05-23T03:20:29.140Z,16.5
2015-05-23T03:20:47.424Z,16.4
2015-05-23T03:21:05.721Z,16.4
2015-05-23T03:21:24.017Z,16.4
2015-05-23T03:21:42.317Z,16.4
2015-05-23T03:22:00.614Z,16.4
2015-05-23T03:22:18.911Z,16.5
2015-05-23T03:22:37.192Z,16.4
2015-05-23T03:22:55.477Z,16.5
2015-05-23T03:23:13.773Z,16.5
2015-05-23T03:23:32.070Z,16.5
2015-05-23T03:23:50.354Z,16.5
2015-05-23T03:24:08.650Z,16.5
2015-05-23T03:24:26.947Z,16.6
2015-05-23T03:24:45.231Z,16.6
2015-05-23T03:25:03.512Z,16.6
2015-05-23T03:25:21.809Z,16.6
2015-05-23T03:25:40.090Z,16.6
2015-05-23T03:25:58.373Z,16.6
2015-05-23T03:26:16.670Z,16.7
2015-05-23T03:26:34.951Z,16.6
2015-05-23T03:26:53.267Z,16.6
2015-05-23T03:27:11.564Z,16.6
2015-05-23T03:27:29.861Z,16.7
2015-05-23T03:27:48.128Z,16.7
2015-05-23T03:28:06.409Z,16.7
2015-05-23T03:28:24.722Z,16.7
2015-05-23T03:28:42.988Z,16.7
2015-05-23T03:29:01.287Z,16.7
2015-05-23T03:29:19.584Z,16.7
2015-05-23T03:29:37.897Z,16.7
2015-05-23T03:29:56.196Z,16.7
2015-05-23T03:30:14.493Z,16.7
2015-05-23T03:30:32.789Z,16.6
2015-05-23T03:30:51.104Z,16.6
2015-05-23T03:31:09.401Z,16.6
2015-05-23T03:31:27.682Z,16.6
2015-05-23T03:31:45.995Z,16.6
2015-05-23T03:32:04.278Z,16.5
2015-05-23T03:32:22.575Z,16.5
2015-05-23T03:32:40.872Z,16.5
2015-05-23T03:32:59.155Z,16.5
2015-05-23T03:33:17.436Z,16.5
2015-05-23T03:33:35.733Z,16.5
2015-05-23T03:33:54.033Z,16.5
2015-05-23T03:34:12.314Z,16.5
2015-05-23T03:34:30.611Z,16.5
2015-05-23T03:34:48.892Z,16.5
2015-05-23T03:35:07.175Z,16.4
2015-05-23T03:35:25.472Z,16.4
2015-05-23T03:35:43.754Z,16.4
2015-05-23T03:36:02.053Z,16.4
2015-05-23T03:36:20.366Z,16.4
2015-05-23T03:36:38.647Z,16.4
2015-05-23T03:36:56.930Z,16.4
2015-05-23T03:37:15.243Z,16.4
2015-05-23T03:37:33.540Z,16.4
2015-05-23T03:37:51.821Z,16.5
2015-05-23T03:38:10.121Z,16.5
2015-05-23T03:38:28.402Z,16.5
2015-05-23T03:38:46.699Z,16.5
2015-05-23T03:39:04.982Z,16.5
2015-05-23T03:39:23.279Z,16.5
2015-05-23T03:39:41.560Z,16.5
2015-05-23T03:39:59.842Z,16.5
2015-05-23T03:40:18.141Z,16.5
2015-05-23T03:40:36.266Z,16.6
2015-05-23T03:40:54.578Z,16.6
2015-05-23T03:41:12.862Z,16.6
2015-05-23T03:41:31.144Z,16.6
2015-05-23T03:41:49.425Z,16.7
2015-05-23T03:42:07.706Z,16.6
2015-05-23T03:42:25.989Z,16.6
2015-05-23T03:42:44.271Z,16.6
2015-05-23T03:43:02.567Z,16.6
2015-05-23T03:43:20.866Z,16.6
2015-05-23T03:43:39.148Z,16.6
2015-05-23T03:43:57.491Z,16.6
2015-05-23T03:44:15.773Z,16.6
2015-05-23T03:44:34.073Z,16.6
2015-05-23T03:44:52.370Z,16.6
2015-05-23T03:45:10.652Z,16.7
2015-05-23T03:45:28.935Z,16.6
2015-05-23T03:45:47.216Z,16.7
2015-05-23T03:46:05.497Z,16.6
2015-05-23T03:46:23.810Z,16.7
2015-05-23T03:46:42.077Z,16.7
2015-05-23T03:47:00.374Z,16.7
2015-05-23T03:47:18.656Z,16.7
2015-05-23T03:47:36.955Z,16.7
2015-05-23T03:47:55.237Z,16.7
2015-05-23T03:48:13.518Z,16.7
2015-05-23T03:48:31.800Z,16.7
2015-05-23T03:48:50.081Z,16.7
2015-05-23T03:49:08.363Z,16.7
2015-05-23T03:49:26.628Z,16.7
2015-05-23T03:49:44.913Z,16.7
2015-05-23T03:50:03.194Z,16.7
2015-05-23T03:50:21.491Z,16.8
2015-05-23T03:50:39.759Z,16.8
2015-05-23T03:50:58.072Z,16.8
2015-05-23T03:51:16.353Z,16.8
2015-05-23T03:51:34.620Z,16.8
2015-05-23T03:51:52.917Z,16.9
2015-05-23T03:52:11.198Z,16.9
2015-05-23T03:52:29.479Z,16.9
2015-05-23T03:52:47.763Z,16.9
2015-05-23T03:53:06.045Z,16.9
2015-05-23T03:53:24.326Z,16.9
2015-05-23T03:53:42.610Z,16.9
2015-05-23T03:54:00.907Z,16.9
2015-05-23T03:54:19.204Z,16.9
2015-05-23T03:54:37.487Z,16.9
2015-05-23T03:54:56.081Z,16.9
2015-05-23T03:55:14.362Z,16.9
2015-05-23T03:55:32.675Z,16.9
2015-05-23T03:55:50.990Z,16.9
2015-05-23T03:56:08.604Z,16.9
2015-05-23T03:56:26.901Z,16.9
2015-05-23T03:56:45.183Z,16.9
2015-05-23T03:57:03.480Z,16.9
2015-05-23T03:57:21.777Z,16.9
2015-05-23T03:57:40.061Z,16.9
2015-05-23T03:57:58.358Z,16.9
2015-05-23T03:58:16.671Z,17
2015-05-23T03:58:34.952Z,17
2015-05-23T03:58:53.235Z,17
2015-05-23T03:59:11.532Z,17
2015-05-23T03:59:29.829Z,17
2015-05-23T03:59:48.097Z,16.9
2015-05-23T04:00:06.378Z,16.9
2015-05-23T04:00:24.675Z,16.9
2015-05-23T04:00:42.959Z,16.9
2015-05-23T04:01:01.240Z,16.9
2015-05-23T04:01:19.537Z,16.9
2015-05-23T04:01:37.818Z,16.9
2015-05-23T04:01:56.102Z,16.9
2015-05-23T04:02:14.383Z,16.9
2015-05-23T04:02:32.664Z,16.9
2015-05-23T04:02:50.932Z,16.9
2015-05-23T04:03:09.229Z,16.8
2015-05-23T04:03:27.510Z,16.8
2015-05-23T04:03:45.791Z,16.9
2015-05-23T04:04:04.075Z,16.9
2015-05-23T04:04:22.388Z,16.9
2015-05-23T04:04:40.669Z,16.9
2015-05-23T04:04:58.968Z,16.9
2015-05-23T04:05:17.249Z,16.9
2015-05-23T04:05:35.531Z,16.9
2015-05-23T04:05:53.827Z,16.9
2015-05-23T04:06:12.112Z,16.9
2015-05-23T04:06:30.409Z,16.9